sim
Sign-in with your pilot id or email,
or register
Callsign
Passwort

Schedule Details

Flight Number: OEO8420
Departure: Munich Airport (EDDM) at 10:10
Arrival: Nantes Atlantique Airport (LFRS) at 12:15

Weather Information
Getting current METAR information for EDDM 191520Z 04004KT 350V080 CAVOK 21/12 Q1017 NOSIG
Getting current METAR information for LFRS 191500Z AUTO VRB03KT 9999 TS SCT034/// BKN064/// OVC084/// ///CB 23/17 Q1010 TEMPO VRB15G25KT 3000 TSRA BKN012 BKN020CB

Schedule Frequency

Route Map